Time;durP1;ratioP1;P1;durP2;ratioP2;P2;SDS_P1;SDS_P2;PMS_P1;PMS_P2;Temp;Humidity;BMP_temperature;BMP_pressure;BME280_temperature;BME280_humidity;BME280_pressure;Samples;Min_cycle;Max_cycle;Signal;HPM_P1;HPM_P2
2022/05/29 00:02:14;;;;;;;8.90;3.90;;;;;;;;;;5052249;28;20033;-41
2022/05/29 00:04:39;;;;;;;3.90;3.55;;;;;;;;;;5052530;28;20029;-43
2022/05/29 00:07:09;;;;;;;4.88;3.67;;;;;;;;;;5052321;28;20362;-44
2022/05/29 00:09:39;;;;;;;10.07;3.97;;;;;;;;;;5052180;28;20025;-41
2022/05/29 00:12:07;;;;;;;4.50;3.90;;;;;;;;;;5052184;28;20119;-42
2022/05/29 00:14:33;;;;;;;3.67;3.38;;;;;;;;;;5052193;28;20033;-42
2022/05/29 00:16:59;;;;;;;4.90;3.97;;;;;;;;;;5052169;28;20104;-39
2022/05/29 00:19:25;;;;;;;3.53;3.17;;;;;;;;;;5052292;28;20103;-46
2022/05/29 00:21:51;;;;;;;4.00;3.33;;;;;;;;;;5052362;28;20167;-44
2022/05/29 00:24:17;;;;;;;5.53;3.58;;;;;;;;;;5052258;28;20460;-43
2022/05/29 00:26:45;;;;;;;4.28;3.88;;;;;;;;;;5051950;28;20497;-45
2022/05/29 00:29:10;;;;;;;5.80;3.83;;;;;;;;;;5051768;28;20563;-42
2022/05/29 00:31:36;;;;;;;6.97;4.07;;;;;;;;;;5052152;28;20163;-41
2022/05/29 00:34:02;;;;;;;4.60;4.05;;;;;;;;;;5052188;28;20385;-40
2022/05/29 00:36:32;;;;;;;4.30;3.75;;;;;;;;;;5051975;28;20083;-40
2022/05/29 00:38:57;;;;;;;4.55;4.00;;;;;;;;;;5051856;28;20118;-45
2022/05/29 00:41:26;;;;;;;4.32;3.92;;;;;;;;;;5051954;28;20071;-40
2022/05/29 00:44:24;;;;;;;4.57;3.85;;;;;;;;;;5052059;28;20372;-40
2022/05/29 00:47:14;;;;;;;5.25;4.40;;;;;;;;;;5047045;28;20123;-43
2022/05/29 00:49:41;;;;;;;7.78;4.10;;;;;;;;;;5051771;28;20025;-42
2022/05/29 00:52:23;;;;;;;8.40;4.38;;;;;;;;;;5051994;28;20025;-40
2022/05/29 00:54:55;;;;;;;9.88;4.55;;;;;;;;;;5051682;28;20028;-42
2022/05/29 00:57:30;;;;;;;6.40;5.13;;;;;;;;;;5051639;28;20033;-42
2022/05/29 01:00:00;;;;;;;5.68;3.67;;;;;;;;;;5051979;28;20025;-45
2022/05/29 01:02:26;;;;;;;7.85;3.40;;;;;;;;;;5051672;28;20017;-41
2022/05/29 01:04:52;;;;;;;7.20;4.50;;;;;;;;;;5051841;28;20032;-44
2022/05/29 01:07:20;;;;;;;5.15;3.95;;;;;;;;;;5052375;28;20535;-40
2022/05/29 01:09:48;;;;;;;6.13;3.90;;;;;;;;;;5055078;28;20033;-41
2022/05/29 01:12:28;;;;;;;6.25;3.72;;;;;;;;;;5055077;28;20473;-42
2022/05/29 01:15:32;;;;;;;8.48;4.00;;;;;;;;;;5055010;28;20079;-41
2022/05/29 01:18:12;;;;;;;6.50;3.55;;;;;;;;;;5055304;28;20025;-42
2022/05/29 01:21:02;;;;;;;7.43;4.03;;;;;;;;;;5055016;28;20032;-43
2022/05/29 01:23:55;;;;;;;6.93;4.68;;;;;;;;;;5055017;28;20028;-43
2022/05/29 01:26:50;;;;;;;4.95;4.35;;;;;;;;;;5055128;28;20048;-41
2022/05/29 01:29:18;;;;;;;6.90;4.28;;;;;;;;;;5054665;28;20048;-46
2022/05/29 01:31:59;;;;;;;6.25;4.45;;;;;;;;;;5054760;28;20495;-47
2022/05/29 01:34:51;;;;;;;9.00;4.82;;;;;;;;;;5054765;28;20024;-45
2022/05/29 01:37:26;;;;;;;5.25;3.97;;;;;;;;;;5055247;28;20420;-46
2022/05/29 01:40:04;;;;;;;6.97;4.82;;;;;;;;;;5055038;28;20379;-40
2022/05/29 01:42:43;;;;;;;6.80;4.82;;;;;;;;;;5054800;28;20023;-40
2022/05/29 01:45:53;;;;;;;6.22;5.30;;;;;;;;;;5054892;28;20028;-42
2022/05/29 01:48:21;;;;;;;5.30;4.50;;;;;;;;;;5054577;28;20063;-44
2022/05/29 01:50:54;;;;;;;6.22;5.13;;;;;;;;;;5054408;28;20116;-41
2022/05/29 01:53:31;;;;;;;7.47;5.30;;;;;;;;;;5054703;28;20384;-42
2022/05/29 01:56:02;;;;;;;7.32;5.15;;;;;;;;;;5054631;28;20444;-39
2022/05/29 01:58:42;;;;;;;6.15;5.03;;;;;;;;;;5054503;28;20063;-40
2022/05/29 02:01:10;;;;;;;7.60;5.57;;;;;;;;;;5054288;28;20468;-41
2022/05/29 02:03:41;;;;;;;9.23;5.20;;;;;;;;;;5054532;28;20029;-39
2022/05/29 02:06:14;;;;;;;;;;;;;;;;;;5054630;28;20025;-42
2022/05/29 02:08:42;;;;;;;7.93;4.65;;;;;;;;;;5054080;28;19920;-42
2022/05/29 02:11:23;;;;;;;10.10;5.05;;;;;;;;;;5054318;28;20024;-42
2022/05/29 02:13:54;;;;;;;7.80;5.07;;;;;;;;;;5054105;28;20049;-42
2022/05/29 02:16:44;;;;;;;6.95;4.60;;;;;;;;;;5054185;28;20054;-41
2022/05/29 02:19:21;;;;;;;9.70;5.28;;;;;;;;;;5053950;28;20538;-41
2022/05/29 02:22:03;;;;;;;5.30;4.38;;;;;;;;;;5053840;28;20534;-40
2022/05/29 02:24:50;;;;;;;8.82;5.63;;;;;;;;;;5053760;28;20027;-42
2022/05/29 02:27:28;;;;;;;6.38;4.70;;;;;;;;;;5053672;28;20542;-45
2022/05/29 02:29:56;;;;;;;7.68;4.60;;;;;;;;;;5053441;28;20587;-40
2022/05/29 02:33:23;;;;;;;7.15;4.53;;;;;;;;;;5053760;28;20646;-40
2022/05/29 02:36:19;;;;;;;7.22;4.47;;;;;;;;;;4972453;28;20501;-42
2022/05/29 02:39:11;;;;;;;9.10;5.07;;;;;;;;;;5053597;28;20485;-41
2022/05/29 02:41:44;;;;;;;8.48;4.88;;;;;;;;;;5053572;28;20067;-44
2022/05/29 02:44:20;;;;;;;8.23;4.90;;;;;;;;;;5053492;28;20021;-42
2022/05/29 02:46:57;;;;;;;8.40;4.53;;;;;;;;;;5053655;28;20036;-44
2022/05/29 02:49:31;;;;;;;7.53;4.90;;;;;;;;;;5053527;28;20040;-41
2022/05/29 02:52:04;;;;;;;7.03;4.60;;;;;;;;;;5053535;28;20029;-46
2022/05/29 02:54:31;;;;;;;9.30;5.63;;;;;;;;;;5053191;28;20040;-43
2022/05/29 02:56:59;;;;;;;8.82;5.60;;;;;;;;;;5053154;28;20036;-41
2022/05/29 02:59:52;;;;;;;11.32;5.30;;;;;;;;;;5053295;28;20021;-44
2022/05/29 03:02:26;;;;;;;8.43;5.25;;;;;;;;;;5046492;28;20669;-41
2022/05/29 03:05:07;;;;;;;8.18;5.03;;;;;;;;;;5052938;28;20033;-43
2022/05/29 03:08:01;;;;;;;9.73;4.82;;;;;;;;;;5053217;28;20029;-44
2022/05/29 03:10:37;;;;;;;8.32;5.05;;;;;;;;;;5053238;28;20047;-41
2022/05/29 03:13:33;;;;;;;7.05;5.57;;;;;;;;;;5052835;28;20028;-40
2022/05/29 03:16:35;;;;;;;11.15;5.40;;;;;;;;;;5053072;28;20033;-40
2022/05/29 03:19:25;;;;;;;6.65;4.93;;;;;;;;;;5052834;28;20024;-42
2022/05/29 03:21:51;;;;;;;;;;;;;;;;;;5053138;28;20055;-45
2022/05/29 03:24:28;;;;;;;6.75;4.25;;;;;;;;;;5052780;28;19915;-41
2022/05/29 03:27:06;;;;;;;9.98;4.47;;;;;;;;;;5052619;28;20112;-41
2022/05/29 03:29:59;;;;;;;5.78;4.47;;;;;;;;;;5052200;28;20056;-41
2022/05/29 03:32:25;;;;;;;8.20;4.88;;;;;;;;;;5052886;28;20021;-43
2022/05/29 03:34:52;;;;;;;6.18;4.85;;;;;;;;;;5052480;28;20036;-41
2022/05/29 03:37:18;;;;;;;9.98;5.03;;;;;;;;;;5052500;28;20032;-41
2022/05/29 03:39:44;;;;;;;9.25;4.85;;;;;;;;;;5052352;28;20032;-40
2022/05/29 03:42:09;;;;;;;8.30;4.20;;;;;;;;;;5052735;28;20025;-44
2022/05/29 03:44:35;;;;;;;7.63;4.07;;;;;;;;;;5052473;28;20032;-40
2022/05/29 03:47:00;;;;;;;1.90;1.80;;;;;;;;;;5052226;28;20116;-40
2022/05/29 03:49:26;;;;;;;3.33;2.35;;;;;;;;;;5052371;28;20036;-40
2022/05/29 03:51:52;;;;;;;9.90;3.10;;;;;;;;;;5052333;28;20021;-40
2022/05/29 03:54:17;;;;;;;5.30;3.67;;;;;;;;;;5052381;28;20083;-40
2022/05/29 03:56:43;;;;;;;5.78;4.10;;;;;;;;;;5052631;28;20017;-39
2022/05/29 03:59:09;;;;;;;6.20;4.85;;;;;;;;;;5052201;28;20021;-43
2022/05/29 04:01:35;;;;;;;8.73;3.63;;;;;;;;;;5052250;28;20029;-40
2022/05/29 04:04:01;;;;;;;7.57;2.85;;;;;;;;;;5052429;28;20358;-40
2022/05/29 04:06:28;;;;;;;2.85;2.03;;;;;;;;;;5052391;28;20021;-39
2022/05/29 04:14:26;;;;;;;4.22;2.40;;;;;;;;;;5052151;28;20094;-39
2022/05/29 04:16:52;;;;;;;6.80;3.45;;;;;;;;;;5052311;28;20412;-41
2022/05/29 04:19:18;;;;;;;5.68;2.75;;;;;;;;;;5052358;28;20028;-40
2022/05/29 04:21:44;;;;;;;8.60;3.00;;;;;;;;;;5052429;28;20021;-41
2022/05/29 04:24:10;;;;;;;6.05;2.83;;;;;;;;;;5052357;28;20025;-39
2022/05/29 04:26:36;;;;;;;3.42;2.47;;;;;;;;;;5052002;28;20028;-41
2022/05/29 04:29:03;;;;;;;3.63;2.70;;;;;;;;;;5051691;28;20064;-43
2022/05/29 04:31:29;;;;;;;5.70;2.50;;;;;;;;;;5052303;28;20025;-39
2022/05/29 04:33:55;;;;;;;6.60;2.42;;;;;;;;;;5051992;28;20098;-39
2022/05/29 04:36:20;;;;;;;5.13;2.20;;;;;;;;;;5051882;28;20037;-42
2022/05/29 04:38:46;;;;;;;2.75;2.33;;;;;;;;;;5051958;28;20025;-42
2022/05/29 04:41:11;;;;;;;3.58;2.63;;;;;;;;;;5051822;28;20029;-40
2022/05/29 04:43:37;;;;;;;3.17;2.53;;;;;;;;;;5055010;28;20128;-41
2022/05/29 04:46:03;;;;;;;5.15;2.38;;;;;;;;;;5055918;28;20036;-44
2022/05/29 04:48:29;;;;;;;3.88;2.55;;;;;;;;;;5055400;28;20044;-42
2022/05/29 04:51:01;;;;;;;5.13;2.95;;;;;;;;;;5055652;28;20029;-42
2022/05/29 04:53:28;;;;;;;3.90;2.70;;;;;;;;;;5055810;28;20104;-42
2022/05/29 04:55:56;;;;;;;6.18;2.72;;;;;;;;;;5055366;28;20028;-43
2022/05/29 04:58:23;;;;;;;4.13;2.65;;;;;;;;;;5055732;28;20365;-42
2022/05/29 05:00:49;;;;;;;4.07;2.80;;;;;;;;;;5055656;28;20021;-45
2022/05/29 05:03:15;;;;;;;3.15;2.78;;;;;;;;;;5055665;28;20029;-42
2022/05/29 05:05:42;;;;;;;4.82;2.72;;;;;;;;;;5055288;28;20033;-40
2022/05/29 05:08:07;;;;;;;3.30;2.17;;;;;;;;;;5055162;28;20037;-41
2022/05/29 05:10:33;;;;;;;5.63;3.15;;;;;;;;;;5055229;28;20025;-42
2022/05/29 05:12:59;;;;;;;4.32;2.63;;;;;;;;;;5037313;28;20029;-39
2022/05/29 05:15:27;;;;;;;3.22;2.58;;;;;;;;;;5055440;28;20162;-41
2022/05/29 05:17:53;;;;;;;7.50;3.50;;;;;;;;;;5055172;28;20028;-39
2022/05/29 05:20:18;;;;;;;6.22;3.38;;;;;;;;;;5054995;28;20029;-39
2022/05/29 05:22:44;;;;;;;6.78;3.10;;;;;;;;;;5055345;28;20041;-40
2022/05/29 05:25:11;;;;;;;4.82;2.20;;;;;;;;;;5054976;28;20163;-41
2022/05/29 05:27:36;;;;;;;2.55;2.15;;;;;;;;;;5055113;28;20029;-39
2022/05/29 05:30:02;;;;;;;2.40;1.98;;;;;;;;;;5054715;28;20485;-40
2022/05/29 05:32:28;;;;;;;3.58;2.30;;;;;;;;;;5054822;28;20028;-41
2022/05/29 05:34:53;;;;;;;7.18;2.22;;;;;;;;;;5054993;28;20025;-41
2022/05/29 05:37:19;;;;;;;3.38;2.20;;;;;;;;;;5055004;28;20396;-41
2022/05/29 05:39:44;;;;;;;6.00;2.50;;;;;;;;;;5054539;28;20033;-39
2022/05/29 05:42:10;;;;;;;2.85;1.90;;;;;;;;;;5054569;28;20035;-40
2022/05/29 05:44:36;;;;;;;2.45;1.73;;;;;;;;;;5054841;28;20469;-40
2022/05/29 05:47:02;;;;;;;8.55;2.35;;;;;;;;;;5054457;28;20443;-43
2022/05/29 05:49:27;;;;;;;3.13;1.90;;;;;;;;;;5054549;28;20112;-44
2022/05/29 05:51:54;;;;;;;2.25;1.60;;;;;;;;;;5054790;28;20103;-40
2022/05/29 05:54:20;;;;;;;2.50;2.00;;;;;;;;;;5054279;28;20032;-39
2022/05/29 05:56:48;;;;;;;2.40;2.08;;;;;;;;;;5054704;28;20025;-39
2022/05/29 05:59:14;;;;;;;1.80;1.60;;;;;;;;;;5036842;28;20120;-40
2022/05/29 06:01:40;;;;;;;1.95;1.63;;;;;;;;;;5054372;28;20594;-41
2022/05/29 06:04:06;;;;;;;1.88;1.70;;;;;;;;;;5054695;28;20021;-41
2022/05/29 06:06:32;;;;;;;1.92;1.40;;;;;;;;;;5054474;28;20376;-40
2022/05/29 06:08:58;;;;;;;1.90;1.60;;;;;;;;;;5054150;28;20025;-40
2022/05/29 06:11:28;;;;;;;2.25;1.40;;;;;;;;;;5054099;28;20102;-40
2022/05/29 06:13:55;;;;;;;1.67;1.23;;;;;;;;;;5054080;28;20044;-40
2022/05/29 06:16:20;;;;;;;1.77;1.40;;;;;;;;;;5053964;28;20041;-41
2022/05/29 06:18:46;;;;;;;3.00;1.33;;;;;;;;;;5054167;28;20096;-40
2022/05/29 06:21:12;;;;;;;1.20;1.10;;;;;;;;;;5053048;28;20435;-43
2022/05/29 06:23:38;;;;;;;3.13;1.85;;;;;;;;;;5053815;28;20029;-44
2022/05/29 06:26:06;;;;;;;1.50;1.30;;;;;;;;;;5019453;28;20078;-41
2022/05/29 06:28:32;;;;;;;1.90;1.50;;;;;;;;;;5053542;28;20488;-39
2022/05/29 06:30:58;;;;;;;1.52;1.30;;;;;;;;;;5053878;28;20159;-42
2022/05/29 06:33:26;;;;;;;1.45;1.30;;;;;;;;;;5053112;28;20075;-39
2022/05/29 06:35:52;;;;;;;1.67;1.33;;;;;;;;;;5053786;28;20067;-42
2022/05/29 06:38:17;;;;;;;1.63;1.30;;;;;;;;;;5052403;28;20025;-39
2022/05/29 06:40:49;;;;;;;1.55;1.20;;;;;;;;;;5051786;28;20411;-39
2022/05/29 06:43:15;;;;;;;1.25;1.00;;;;;;;;;;5052101;28;20083;-39
2022/05/29 06:45:40;;;;;;;1.75;1.17;;;;;;;;;;5052831;28;20068;-38
2022/05/29 06:48:06;;;;;;;1.05;1.05;;;;;;;;;;5053335;28;20120;-39
2022/05/29 06:50:31;;;;;;;0.65;0.60;;;;;;;;;;5053693;28;20075;-39
2022/05/29 06:52:57;;;;;;;0.55;0.55;;;;;;;;;;5053819;28;20025;-39
2022/05/29 06:55:22;;;;;;;1.23;1.10;;;;;;;;;;5053268;28;20346;-38
2022/05/29 06:57:48;;;;;;;2.55;2.35;;;;;;;;;;5053049;28;20095;-40
2022/05/29 07:08:36;;;;;;;1.35;1.25;;;;;;;;;;5052879;28;20041;-40
2022/05/29 07:11:06;;;;;;;6.07;1.35;;;;;;;;;;5018654;28;20025;-38
2022/05/29 07:13:32;;;;;;;1.45;1.20;;;;;;;;;;5053350;28;20459;-39
2022/05/29 07:15:58;;;;;;;1.23;1.10;;;;;;;;;;5052880;28;20481;-38
2022/05/29 07:18:23;;;;;;;2.20;1.08;;;;;;;;;;5053053;28;20021;-41
2022/05/29 07:20:48;;;;;;;1.70;1.00;;;;;;;;;;5035069;28;20461;-42
2022/05/29 07:23:14;;;;;;;0.80;0.80;;;;;;;;;;5053006;28;20362;-38
2022/05/29 07:25:40;;;;;;;1.42;1.05;;;;;;;;;;5052941;28;20033;-40
2022/05/29 07:28:08;;;;;;;0.73;0.73;;;;;;;;;;5052680;28;20035;-38
2022/05/29 07:30:34;;;;;;;1.25;1.10;;;;;;;;;;5052465;28;20049;-40
2022/05/29 07:33:00;;;;;;;3.80;1.30;;;;;;;;;;5052896;28;20035;-40
2022/05/29 07:35:26;;;;;;;1.65;1.00;;;;;;;;;;5052547;28;20033;-39
2022/05/29 07:37:52;;;;;;;1.42;1.10;;;;;;;;;;5034858;28;20033;-39
2022/05/29 07:40:17;;;;;;;1.80;1.30;;;;;;;;;;5052587;28;20029;-39
2022/05/29 07:45:27;;;;;;;1.77;1.13;;;;;;;;;;5052834;28;20047;-38
2022/05/29 07:47:55;;;;;;;1.27;0.95;;;;;;;;;;5052598;28;20505;-38
2022/05/29 07:50:22;;;;;;;1.40;1.17;;;;;;;;;;5035098;28;20107;-39
2022/05/29 07:52:50;;;;;;;2.72;1.10;;;;;;;;;;5052380;28;20033;-41
2022/05/29 07:55:16;;;;;;;1.45;1.10;;;;;;;;;;5052490;28;20029;-44
2022/05/29 07:57:42;;;;;;;1.30;1.20;;;;;;;;;;5052516;28;20377;-46
2022/05/29 08:00:12;;;;;;;3.90;1.65;;;;;;;;;;5052223;28;20029;-43
2022/05/29 08:02:38;;;;;;;1.40;1.30;;;;;;;;;;5052214;28;20029;-46
2022/05/29 08:05:06;;;;;;;1.30;1.20;;;;;;;;;;5052212;28;20508;-42
2022/05/29 08:07:31;;;;;;;3.92;1.60;;;;;;;;;;5052073;28;20029;-41
2022/05/29 08:09:57;;;;;;;2.42;1.60;;;;;;;;;;5052142;28;20032;-43
2022/05/29 08:12:23;;;;;;;2.13;1.80;;;;;;;;;;5052482;28;20032;-43
2022/05/29 08:14:48;;;;;;;2.00;1.50;;;;;;;;;;5034180;28;20033;-43
2022/05/29 08:17:14;;;;;;;1.80;1.48;;;;;;;;;;5054742;28;20029;-46
2022/05/29 08:19:39;;;;;;;1.80;1.40;;;;;;;;;;5056232;28;20029;-43
2022/05/29 08:22:05;;;;;;;2.13;1.60;;;;;;;;;;5038411;28;20095;-39
2022/05/29 08:33:00;;;;;;;2.08;1.70;;;;;;;;;;5056314;28;20572;-38
2022/05/29 08:35:26;;;;;;;2.78;1.70;;;;;;;;;;5056142;28;20100;-38
2022/05/29 08:37:51;;;;;;;1.50;1.40;;;;;;;;;;5056163;28;20035;-41
2022/05/29 08:40:17;;;;;;;1.95;1.73;;;;;;;;;;5037905;28;20028;-38
2022/05/29 08:42:42;;;;;;;2.55;1.30;;;;;;;;;;5055782;28;20162;-39
2022/05/29 08:45:12;;;;;;;1.48;1.35;;;;;;;;;;5055742;28;20032;-47
2022/05/29 08:47:39;;;;;;;0.80;0.80;;;;;;;;;;5055567;28;20032;-39
2022/05/29 08:50:06;;;;;;;4.15;1.17;;;;;;;;;;5037814;28;20043;-40
2022/05/29 08:53:08;;;;;;;1.20;1.10;;;;;;;;;;5055578;28;20025;-40
2022/05/29 08:55:36;;;;;;;1.45;1.05;;;;;;;;;;5055567;28;20392;-38
2022/05/29 08:58:19;;;;;;;5.88;2.20;;;;;;;;;;5055477;28;20025;-38
2022/05/29 09:00:59;;;;;;;2.67;1.55;;;;;;;;;;5055396;28;20223;-39
2022/05/29 09:03:46;;;;;;;2.92;1.20;;;;;;;;;;5055345;28;20113;-39
2022/05/29 09:06:17;;;;;;;1.90;1.70;;;;;;;;;;5055273;28;20021;-38
2022/05/29 09:09:28;;;;;;;2.33;1.80;;;;;;;;;;5037314;28;20036;-39
2022/05/29 09:11:57;;;;;;;3.45;1.88;;;;;;;;;;5048627;28;20036;-38
2022/05/29 09:14:33;;;;;;;3.00;1.48;;;;;;;;;;5055057;28;20029;-38
2022/05/29 09:17:16;;;;;;;2.13;1.02;;;;;;;;;;5037173;28;20119;-38
2022/05/29 09:19:50;;;;;;;1.50;1.40;;;;;;;;;;5055075;28;20471;-38
2022/05/29 09:22:22;;;;;;;1.40;0.98;;;;;;;;;;5055100;28;20029;-44
2022/05/29 09:25:08;;;;;;;3.25;1.60;;;;;;;;;;5037099;28;20107;-41
2022/05/29 09:27:36;;;;;;;2.22;1.80;;;;;;;;;;5054476;28;20025;-39
2022/05/29 09:30:03;;;;;;;2.38;1.63;;;;;;;;;;5054655;28;20083;-38
2022/05/29 09:32:32;;;;;;;2.05;1.20;;;;;;;;;;5054829;28;20025;-39
2022/05/29 09:35:10;;;;;;;2.28;1.60;;;;;;;;;;5036793;28;20029;-40
2022/05/29 09:38:09;;;;;;;2.28;1.38;;;;;;;;;;5054988;28;20032;-37
2022/05/29 09:40:48;;;;;;;1.48;0.93;;;;;;;;;;5054773;28;20028;-38
2022/05/29 09:43:23;;;;;;;1.38;1.27;;;;;;;;;;5037749;28;20028;-37
2022/05/29 09:45:48;;;;;;;2.00;1.50;;;;;;;;;;5037834;28;20468;-40
2022/05/29 09:51:21;;;;;;;1.17;1.08;;;;;;;;;;5054787;28;20036;-39
2022/05/29 09:53:53;;;;;;;0.40;0.40;;;;;;;;;;5036935;28;20167;-38
2022/05/29 09:56:30;;;;;;;1.02;0.47;;;;;;;;;;5054620;28;20028;-38
2022/05/29 09:59:00;;;;;;;0.70;0.70;;;;;;;;;;5054269;28;20025;-40
2022/05/29 10:01:34;;;;;;;0.80;0.80;;;;;;;;;;5054156;28;20021;-38
2022/05/29 10:04:04;;;;;;;2.08;1.05;;;;;;;;;;5054610;28;20690;-40
2022/05/29 10:06:34;;;;;;;;;;;;;;;;;;5054852;28;20082;-46
2022/05/29 10:09:09;;;;;;;0.45;0.45;;;;;;;;;;5054174;28;19920;-46
2022/05/29 10:11:35;;;;;;;1.98;1.00;;;;;;;;;;5053992;28;20029;-47
2022/05/29 10:14:36;;;;;;;0.98;0.98;;;;;;;;;;5053975;28;20027;-46
2022/05/29 10:17:26;;;;;;;1.73;1.33;;;;;;;;;;5054169;28;20170;-46
2022/05/29 10:19:58;;;;;;;3.27;1.30;;;;;;;;;;5052946;28;20031;-45
2022/05/29 10:22:31;;;;;;;4.60;1.52;;;;;;;;;;5054107;28;20269;-46
2022/05/29 10:24:57;;;;;;;1.30;0.82;;;;;;;;;;5053948;28;20069;-48
2022/05/29 10:27:32;;;;;;;4.43;1.20;;;;;;;;;;5053778;28;20393;-45
2022/05/29 10:30:10;;;;;;;1.30;1.20;;;;;;;;;;5053650;28;20075;-47
2022/05/29 10:32:42;;;;;;;1.25;1.15;;;;;;;;;;5053718;28;20021;-47
2022/05/29 10:35:27;;;;;;;2.10;1.17;;;;;;;;;;5053606;28;20083;-46
2022/05/29 10:37:53;;;;;;;1.60;1.17;;;;;;;;;;5053590;28;20041;-45
2022/05/29 10:40:41;;;;;;;1.45;1.20;;;;;;;;;;5052554;28;20025;-45
2022/05/29 10:43:06;;;;;;;3.53;1.73;;;;;;;;;;5053445;28;20037;-46
2022/05/29 10:45:41;;;;;;;2.30;0.93;;;;;;;;;;5053548;28;20025;-47
2022/05/29 10:48:51;;;;;;;1.98;1.40;;;;;;;;;;5053468;28;20035;-48
2022/05/29 10:51:27;;;;;;;1.95;1.08;;;;;;;;;;5011237;28;20038;-45
2022/05/29 10:54:13;;;;;;;3.13;1.55;;;;;;;;;;5011298;28;20121;-46
2022/05/29 10:56:47;;;;;;;1.38;1.23;;;;;;;;;;5039575;28;20117;-46
2022/05/29 10:59:19;;;;;;;7.05;1.73;;;;;;;;;;5053072;28;20029;-48
2022/05/29 11:04:56;;;;;;;8.98;1.35;;;;;;;;;;5053144;28;20167;-46
2022/05/29 11:07:46;;;;;;;5.28;1.35;;;;;;;;;;5052946;28;20433;-47
2022/05/29 11:10:29;;;;;;;1.88;1.40;;;;;;;;;;5054110;28;20025;-46
2022/05/29 11:13:13;;;;;;;4.40;1.35;;;;;;;;;;5053040;28;20503;-46
2022/05/29 11:15:55;;;;;;;2.33;1.67;;;;;;;;;;5053175;28;20036;-45
2022/05/29 11:18:39;;;;;;;2.75;1.23;;;;;;;;;;5035985;28;20087;-47
2022/05/29 11:21:31;;;;;;;2.85;1.55;;;;;;;;;;5052790;28;20021;-48
2022/05/29 11:24:08;;;;;;;0.90;0.90;;;;;;;;;;5053060;28;20032;-46
2022/05/29 11:26:56;;;;;;;1.85;1.50;;;;;;;;;;5052968;28;20112;-48
2022/05/29 11:29:44;;;;;;;4.25;1.35;;;;;;;;;;5052446;28;20523;-45
2022/05/29 11:32:28;;;;;;;0.90;0.90;;;;;;;;;;5035196;28;20025;-46
2022/05/29 11:35:15;;;;;;;1.23;1.00;;;;;;;;;;5052537;28;20061;-47
2022/05/29 11:37:53;;;;;;;2.17;1.00;;;;;;;;;;5052419;28;20037;-47
2022/05/29 11:40:23;;;;;;;1.25;0.93;;;;;;;;;;5052749;28;20385;-46
2022/05/29 11:43:05;;;;;;;0.85;0.85;;;;;;;;;;5052539;28;20128;-46
2022/05/29 11:51:31;;;;;;;0.70;0.70;;;;;;;;;;5052379;28;20032;-47
2022/05/29 11:54:27;;;;;;;0.80;0.80;;;;;;;;;;5052305;28;20025;-47
2022/05/29 11:57:10;;;;;;;2.08;1.20;;;;;;;;;;5050998;28;20094;-46
2022/05/29 11:59:52;;;;;;;2.22;1.40;;;;;;;;;;5052410;28;20091;-47
2022/05/29 12:02:33;;;;;;;2.40;1.80;;;;;;;;;;5052396;28;20044;-47
2022/05/29 12:05:28;;;;;;;0.70;0.70;;;;;;;;;;5052519;28;20483;-46
2022/05/29 12:07:54;;;;;;;2.83;1.17;;;;;;;;;;5052083;28;20032;-48
2022/05/29 12:10:24;;;;;;;1.20;1.10;;;;;;;;;;5052390;28;20025;-47
2022/05/29 12:13:01;;;;;;;1.20;1.10;;;;;;;;;;5052323;28;20021;-47
2022/05/29 12:15:30;;;;;;;1.67;1.40;;;;;;;;;;5052195;28;20035;-45
2022/05/29 12:18:10;;;;;;;1.27;1.20;;;;;;;;;;5052222;28;20044;-45
2022/05/29 12:20:49;;;;;;;2.13;1.20;;;;;;;;;;5052164;28;20496;-47
2022/05/29 12:23:30;;;;;;;1.23;1.00;;;;;;;;;;5051489;28;20029;-45
2022/05/29 12:26:01;;;;;;;;;;;;;;;;;;5052848;28;20092;-45
2022/05/29 12:28:45;;;;;;;1.52;1.20;;;;;;;;;;5051754;28;19955;-47
2022/05/29 12:31:20;;;;;;;1.95;0.93;;;;;;;;;;5052367;28;20029;-46
2022/05/29 12:33:47;;;;;;;2.33;1.10;;;;;;;;;;5052018;28;20465;-46
2022/05/29 12:36:30;;;;;;;1.65;1.10;;;;;;;;;;5052181;28;20083;-47
2022/05/29 12:39:22;;;;;;;2.85;0.50;;;;;;;;;;5033980;28;20029;-45
2022/05/29 12:41:54;;;;;;;1.75;0.80;;;;;;;;;;5051788;28;20048;-47
2022/05/29 12:44:46;;;;;;;0.70;0.63;;;;;;;;;;5051948;28;20035;-47
2022/05/29 12:47:52;;;;;;;1.02;1.02;;;;;;;;;;5052080;28;20520;-46
2022/05/29 12:50:43;;;;;;;1.50;0.93;;;;;;;;;;4990254;28;20031;-46
2022/05/29 12:53:11;;;;;;;2.50;0.88;;;;;;;;;;4990252;28;20477;-46
2022/05/29 12:56:21;;;;;;;0.55;0.55;;;;;;;;;;5031427;28;20163;-48
2022/05/29 12:59:20;;;;;;;1.27;0.87;;;;;;;;;;5003824;28;20041;-48
2022/05/29 13:02:36;;;;;;;1.92;0.73;;;;;;;;;;5014463;28;20345;-48
2022/05/29 13:05:31;;;;;;;0.77;0.70;;;;;;;;;;4993633;28;20367;-46
2022/05/29 13:08:14;;;;;;;0.82;0.82;;;;;;;;;;5024291;28;20041;-45
2022/05/29 13:10:42;;;;;;;4.38;1.13;;;;;;;;;;5055304;28;20033;-47
2022/05/29 13:13:13;;;;;;;1.50;0.80;;;;;;;;;;5055261;28;20017;-46
2022/05/29 13:15:40;;;;;;;1.60;0.95;;;;;;;;;;5055392;28;20025;-47
2022/05/29 13:18:09;;;;;;;0.52;0.43;;;;;;;;;;5055433;28;20029;-47
2022/05/29 13:21:08;;;;;;;2.95;0.85;;;;;;;;;;5055331;28;20032;-46
2022/05/29 13:23:37;;;;;;;0.60;0.60;;;;;;;;;;5049968;28;20033;-46
2022/05/29 13:26:03;;;;;;;0.90;0.50;;;;;;;;;;5037138;28;20234;-47
2022/05/29 13:28:31;;;;;;;0.45;0.43;;;;;;;;;;5054769;28;20100;-45
2022/05/29 13:31:14;;;;;;;4.85;0.70;;;;;;;;;;5054947;28;20021;-45
2022/05/29 13:33:46;;;;;;;0.60;0.60;;;;;;;;;;5055287;28;20443;-47
2022/05/29 13:36:43;;;;;;;0.70;0.70;;;;;;;;;;5054959;28;20021;-45
2022/05/29 13:39:30;;;;;;;1.73;0.73;;;;;;;;;;5033100;28;20032;-47
2022/05/29 13:42:11;;;;;;;0.40;0.40;;;;;;;;;;5054662;28;20048;-47
2022/05/29 13:44:38;;;;;;;0.85;0.63;;;;;;;;;;5054624;28;20021;-47
2022/05/29 13:47:19;;;;;;;1.55;0.52;;;;;;;;;;5054923;28;20025;-47
2022/05/29 13:50:12;;;;;;;1.10;0.35;;;;;;;;;;5054814;28;20059;-47
2022/05/29 13:52:56;;;;;;;0.93;0.70;;;;;;;;;;5054419;28;20405;-45
2022/05/29 13:55:23;;;;;;;0.30;0.30;;;;;;;;;;5054558;28;20111;-45
2022/05/29 14:04:33;;;;;;;0.68;0.68;;;;;;;;;;5054381;28;20056;-46
2022/05/29 14:07:32;;;;;;;1.10;0.60;;;;;;;;;;5036368;28;20025;-47
2022/05/29 14:10:25;;;;;;;0.60;0.60;;;;;;;;;;5054202;28;20029;-46
2022/05/29 14:13:09;;;;;;;1.63;0.95;;;;;;;;;;5036397;28;20029;-47
2022/05/29 14:15:37;;;;;;;1.02;0.90;;;;;;;;;;5053814;28;20119;-46
2022/05/29 14:18:55;;;;;;;3.17;0.98;;;;;;;;;;5054226;28;20394;-45
2022/05/29 14:21:35;;;;;;;2.13;0.90;;;;;;;;;;5028397;28;20048;-45
2022/05/29 14:24:07;;;;;;;1.90;0.80;;;;;;;;;;5053967;28;20432;-46
2022/05/29 14:26:52;;;;;;;0.70;0.70;;;;;;;;;;5054084;28;20121;-47
2022/05/29 14:29:36;;;;;;;1.15;0.73;;;;;;;;;;5053790;28;20178;-45
2022/05/29 14:32:15;;;;;;;1.38;0.80;;;;;;;;;;5054110;28;20464;-46
2022/05/29 14:35:05;;;;;;;2.42;1.08;;;;;;;;;;5053687;28;20097;-46
2022/05/29 14:37:44;;;;;;;1.90;0.75;;;;;;;;;;5053631;28;20036;-45
2022/05/29 14:40:35;;;;;;;0.75;0.75;;;;;;;;;;5053973;28;20392;-45
2022/05/29 14:43:15;;;;;;;1.40;0.93;;;;;;;;;;5053504;28;20039;-47
2022/05/29 14:46:13;;;;;;;;;;;;;;;;;;5054211;28;20020;-46
2022/05/29 14:48:55;;;;;;;0.82;0.80;;;;;;;;;;5053075;28;19912;-45
2022/05/29 14:51:45;;;;;;;0.95;0.82;;;;;;;;;;5053356;28;20044;-45
2022/05/29 14:54:27;;;;;;;2.87;0.90;;;;;;;;;;5035638;28;20096;-47
2022/05/29 14:57:00;;;;;;;2.10;0.98;;;;;;;;;;5053243;28;20024;-46
2022/05/29 14:59:34;;;;;;;0.80;0.75;;;;;;;;;;5053427;28;20072;-48
2022/05/29 15:02:07;;;;;;;0.47;0.47;;;;;;;;;;5035855;28;20036;-47
2022/05/29 15:04:39;;;;;;;0.63;0.60;;;;;;;;;;5053163;28;20465;-45
2022/05/29 15:12:43;;;;;;;1.80;0.70;;;;;;;;;;5052999;28;20508;-45
2022/05/29 15:15:31;;;;;;;1.60;0.90;;;;;;;;;;5053292;28;20033;-47
2022/05/29 15:18:23;;;;;;;0.15;0.15;;;;;;;;;;5052821;28;20029;-45
2022/05/29 15:26:21;;;;;;;1.17;0.80;;;;;;;;;;5052441;28;20036;-46
2022/05/29 15:28:49;;;;;;;0.75;0.60;;;;;;;;;;5052606;28;20411;-47
2022/05/29 15:31:25;;;;;;;0.63;0.50;;;;;;;;;;5052921;28;20086;-47
2022/05/29 15:33:59;;;;;;;5.03;0.75;;;;;;;;;;5052985;28;20028;-45
2022/05/29 15:36:51;;;;;;;0.50;0.50;;;;;;;;;;5052656;28;20037;-46
2022/05/29 15:39:51;;;;;;;3.35;0.90;;;;;;;;;;5038356;28;20044;-45
2022/05/29 15:42:27;;;;;;;0.60;0.60;;;;;;;;;;5052644;28;20021;-45
2022/05/29 15:45:19;;;;;;;0.88;0.60;;;;;;;;;;5052786;28;20021;-47
2022/05/29 15:48:24;;;;;;;0.60;0.60;;;;;;;;;;5034917;28;20061;-45
2022/05/29 15:50:58;;;;;;;0.60;0.60;;;;;;;;;;5051352;28;20463;-45
2022/05/29 15:53:58;;;;;;;0.70;0.70;;;;;;;;;;5052653;28;20041;-45
2022/05/29 15:57:03;;;;;;;4.57;0.60;;;;;;;;;;5052295;28;20124;-47
2022/05/29 16:00:00;;;;;;;1.20;0.93;;;;;;;;;;5052473;28;20032;-47
2022/05/29 16:02:48;;;;;;;0.73;0.70;;;;;;;;;;5052585;28;20021;-45
2022/05/29 16:05:23;;;;;;;1.85;1.15;;;;;;;;;;5052132;28;20518;-47
2022/05/29 16:07:49;;;;;;;0.75;0.60;;;;;;;;;;5052510;28;20098;-46
2022/05/29 16:10:15;;;;;;;1.08;1.00;;;;;;;;;;5034391;28;20032;-45
2022/05/29 16:12:52;;;;;;;0.85;0.70;;;;;;;;;;5052720;28;20033;-45
2022/05/29 16:15:39;;;;;;;0.65;0.65;;;;;;;;;;5052428;28;20096;-47
2022/05/29 16:18:33;;;;;;;1.55;0.63;;;;;;;;;;5052341;28;20025;-45
2022/05/29 16:21:29;;;;;;;0.45;0.45;;;;;;;;;;5052383;28;20025;-45
2022/05/29 16:24:05;;;;;;;0.98;0.95;;;;;;;;;;5052300;28;20025;-39
2022/05/29 16:26:37;;;;;;;0.80;0.80;;;;;;;;;;5052233;28;20033;-37
2022/05/29 16:29:25;;;;;;;0.70;0.60;;;;;;;;;;5051856;28;20106;-37